Regional Weather

 

KMKL - Jackson, TN, USA
Distance from station: WNW 50mi, 81km
Updated: Fri, Apr-20-2018 4:53pm CDT
Clear
Clear
 Wind from NE
Wind: NE 5 mph , 7 km/h
Temperature: 70°F , 21°C
Dew Point: 27°F , -3°C
Humidity: 20%
Barometer: 30.28 inHg , 1025.4 hPa
Clouds: Clear
Visibility: 10 miles , 16 km
2018/04/20 21:53 KMKL 202153Z 05004KT 10SM CLR 21/M03 A3028 RMK AO2 SLP255 T02111028
KMEM - Memphis, TN, USA
Distance from station: W 108mi, 173km
Updated: Fri, Apr-20-2018 4:54pm CDT
Few Clouds
Few Clouds
 Wind from E
Wind: E 6 mph , 9 km/h
Temperature: 72°F , 22°C
Dew Point: 30°F , -1°C
Humidity: 22%
Barometer: 30.26 inHg , 1024.7 hPa
Clouds: Few Clouds
Visibility: 10 miles , 16 km
Cloud details: Few Clouds 25000 ft
2018/04/20 21:54 KMEM 202154Z 10005KT 10SM FEW250 22/M01 A3026 RMK AO2 SLP244 T02171011
 
KBNA - Nashville, TN, USA
Distance from station: NE 97mi, 157km
Updated: Fri, Apr-20-2018 4:53pm CDT
Clear
Clear
 Wind from NE
Wind: NE 13 mph , 20 km/h, Gust: 21 mph , 33 km/h
Temperature: 66°F , 19°C
Dew Point: 28°F , -2°C
Humidity: 24%
Barometer: 30.33 inHg , 1027.1 hPa
Clouds: Clear
Visibility: 10 miles , 16 km
2018/04/20 21:53 KBNA 202153Z 04011G18KT 10SM CLR 19/M02 A3033 RMK AO2 SLP271 T01941017
KCKV - Clarksville, TN, USA
Distance from station: NNE 99mi, 159km
Updated: Fri, Apr-20-2018 4:52pm CDT
Clear
Clear
 Wind from E
Wind: E 9 mph , 15 km/h
Temperature: 64°F , 18°C
Dew Point: 25°F , -4°C
Humidity: 22%
Barometer: 30.34 inHg , 1027.4 hPa
Clouds: Clear
Visibility: 10 miles , 16 km
2018/04/20 21:52 KCKV 202152Z AUTO 10008KT 10SM CLR 18/M04 A3034 RMK AO2 SLP274 T01781039
 
KPAH - Paducah, KY, USA
Distance from station: NNW 128mi, 205km
Updated: Fri, Apr-20-2018 4:53pm CDT
Clear
Clear
 Wind from ENE
Wind: ENE 7 mph , 11 km/h
Temperature: 66°F , 19°C
Dew Point: 28°F , -2°C
Humidity: 24%
Barometer: 30.33 inHg , 1027.1 hPa
Clouds: Clear
Visibility: 10 miles , 16 km
2018/04/20 21:53 KPAH 202153Z 07006KT 10SM CLR 19/M02 A3033 RMK AO2 SLP272 T01891022
KCHA - Chattanooga, TN, USA
Distance from station: E 165mi, 265km
Updated: Fri, Apr-20-2018 4:53pm CDT
Clear
Clear
 Wind from N
Wind: N 13 mph , 20 km/h
Temperature: 70°F , 21°C
Dew Point: 28°F , -2°C
Humidity: 21%
Barometer: 30.28 inHg , 1025.4 hPa
Clouds: Clear
Visibility: 10 miles , 16 km
2018/04/20 21:53 KCHA 202153Z 01011KT 10SM CLR 21/M02 A3028 RMK AO2 SLP251 T02061022
 
KTYS - Knoxville, TN, USA
Distance from station: E 234mi, 377km
Updated: Fri, Apr-20-2018 4:53pm CDT
Clear
Clear
 Wind from NNE
Wind: NNE 15 mph , 24 km/h
Temperature: 64°F , 18°C
Dew Point: 30°F , -1°C
Humidity: 28%
Barometer: 30.29 inHg , 1025.7 hPa
Clouds: Clear
Visibility: 10 miles , 16 km
2018/04/20 21:53 KTYS 202153Z 02013KT 10SM CLR 18/M01 A3029 RMK AO2 SLP255 T01781006
KLIT - Little Rock, AR, USA
Distance from station: W 240mi, 386km
Updated: Fri, Apr-20-2018 4:53pm CDT
Partly cloudy
Partly cloudy
 Wind from ENE
Wind: ENE 13 mph , 20 km/h
Temperature: 66°F , 19°C
Dew Point: 34°F , 1°C
Humidity: 30%
Barometer: 30.25 inHg , 1024.4 hPa
Clouds: Partly cloudy
Visibility: 10 miles , 16 km
Cloud details: Partly cloudy 25000 ft
2018/04/20 21:53 KLIT 202153Z 07011KT 10SM SCT250 19/01 A3025 RMK AO2 SLP245 T01940006

Refresh Page for latest data.